Time;durP1;ratioP1;P1;durP2;ratioP2;P2;SDS_P1;SDS_P2;PMS_P1;PMS_P2;Temp;Humidity;BMP_temperature;BMP_pressure;BME280_temperature;BME280_humidity;BME280_pressure;Samples;Min_cycle;Max_cycle;Signal;HPM_P1;HPM_P2
2023/12/03 00:00:05;;;;;;;34.60;12.93;;;0.50;99.90;;;;;;4925599;29;20078;-81
2023/12/03 00:02:32;;;;;;;40.35;13.55;;;0.50;99.90;;;;;;4903224;29;20076;-81
2023/12/03 00:04:59;;;;;;;36.13;12.35;;;1.60;99.90;;;;;;4907111;29;20578;-81
2023/12/03 00:07:27;;;;;;;34.20;13.60;;;0.50;99.90;;;;;;4926502;29;20048;-81
2023/12/03 00:09:55;;;;;;;38.08;12.73;;;0.50;99.90;;;;;;4918829;29;20092;-81
2023/12/03 00:12:21;;;;;;;36.22;12.73;;;0.50;99.90;;;;;;4927497;29;20044;-81
2023/12/03 00:14:48;;;;;;;35.10;12.00;;;0.50;99.90;;;;;;4914939;29;20114;-81
2023/12/03 00:17:15;;;;;;;35.53;12.68;;;0.40;99.90;;;;;;4925797;29;20120;-81
2023/12/03 00:19:42;;;;;;;37.20;12.15;;;1.10;99.90;;;;;;4912854;29;20085;-81
2023/12/03 00:22:08;;;;;;;35.72;13.05;;;0.40;99.90;;;;;;4926778;29;20127;-80
2023/12/03 00:24:35;;;;;;;37.70;12.60;;;0.40;99.90;;;;;;4930589;29;20228;-81
2023/12/03 00:27:02;;;;;;;35.63;13.50;;;0.60;99.90;;;;;;4911546;29;20080;-81
2023/12/03 00:29:29;;;;;;;35.75;12.60;;;0.40;99.90;;;;;;4910810;29;20037;-81
2023/12/03 00:31:56;;;;;;;46.10;13.15;;;0.40;99.90;;;;;;4915041;29;20545;-81
2023/12/03 00:34:22;;;;;;;38.30;13.63;;;0.30;99.90;;;;;;4915137;29;20084;-81
2023/12/03 00:36:49;;;;;;;39.88;14.68;;;0.30;99.90;;;;;;4911570;29;20037;-81
2023/12/03 00:39:16;;;;;;;39.13;12.95;;;0.30;99.90;;;;;;4930340;29;20079;-81
2023/12/03 00:41:42;;;;;;;36.42;11.68;;;0.20;99.90;;;;;;4908471;29;20502;-81
2023/12/03 00:44:09;;;;;;;30.38;12.18;;;0.20;99.90;;;;;;4908030;29;20617;-81
2023/12/03 00:46:36;;;;;;;33.65;11.90;;;0.10;99.90;;;;;;4913545;29;20131;-81
2023/12/03 00:49:02;;;;;;;33.03;12.05;;;0.10;99.90;;;;;;4914869;29;20040;-81
2023/12/03 00:51:29;;;;;;;29.58;10.93;;;0.10;99.90;;;;;;4915525;29;20041;-81
2023/12/03 00:53:55;;;;;;;27.63;10.20;;;0.00;99.90;;;;;;4914796;29;20076;-81
2023/12/03 00:56:22;;;;;;;27.08;11.02;;;0.00;99.90;;;;;;4918307;29;20077;-81
2023/12/03 00:58:49;;;;;;;24.65;10.15;;;0.00;99.90;;;;;;4908349;29;20047;-81
2023/12/03 01:01:16;;;;;;;25.33;10.88;;;0.00;99.90;;;;;;4918428;29;20402;-81
2023/12/03 01:03:43;;;;;;;23.98;10.38;;;0.00;99.90;;;;;;4918395;29;20058;-81
2023/12/03 01:06:10;;;;;;;24.65;9.93;;;-0.10;99.90;;;;;;4918173;29;20064;-81
2023/12/03 01:08:36;;;;;;;27.08;9.52;;;-0.10;99.90;;;;;;4918469;29;20614;-81
2023/12/03 01:11:04;;;;;;;24.98;9.85;;;-0.10;99.90;;;;;;4918710;29;20115;-81
2023/12/03 01:13:31;;;;;;;23.95;8.80;;;-0.10;99.90;;;;;;4933924;29;20493;-81
2023/12/03 01:15:58;;;;;;;25.08;10.27;;;-0.10;99.90;;;;;;4934125;29;20096;-81
2023/12/03 01:18:25;;;;;;;21.50;9.07;;;-0.10;99.90;;;;;;4914137;29;20033;-81
2023/12/03 01:20:55;;;;;;;22.98;9.68;;;-0.10;99.90;;;;;;4933910;29;20044;-81
2023/12/03 01:23:22;;;;;;;26.58;10.60;;;-0.10;99.90;;;;;;4907581;29;20044;-81
2023/12/03 01:25:48;;;;;;;24.08;9.90;;;-0.10;99.90;;;;;;4918030;29;20383;-81
2023/12/03 01:28:19;;;;;;;22.23;8.93;;;-0.10;99.90;;;;;;4918175;29;20047;-81
2023/12/03 01:30:46;;;;;;;21.08;9.48;;;-0.20;99.90;;;;;;4915015;29;20059;-81
2023/12/03 01:33:12;;;;;;;22.25;9.23;;;-0.20;99.90;;;;;;4933824;29;20037;-81
2023/12/03 01:35:39;;;;;;;19.48;9.43;;;-0.20;99.90;;;;;;4925974;29;20044;-81
2023/12/03 01:38:06;;;;;;;17.33;8.32;;;-0.30;99.90;;;;;;4933660;29;20046;-81
2023/12/03 01:40:32;;;;;;;19.55;8.77;;;-0.30;99.90;;;;;;4913578;29;20047;-81
2023/12/03 01:42:59;;;;;;;20.85;8.13;;;-0.30;99.90;;;;;;4914427;29;20128;-81
2023/12/03 01:45:26;;;;;;;22.15;9.05;;;-0.40;99.90;;;;;;4928967;29;20371;-81
2023/12/03 01:47:53;;;;;;;20.50;8.93;;;-0.40;99.90;;;;;;4929938;29;20045;-81
2023/12/03 01:50:21;;;;;;;18.23;8.23;;;-0.50;99.90;;;;;;4917978;29;20395;-81
2023/12/03 01:52:48;;;;;;;21.25;7.63;;;-0.50;99.90;;;;;;4917510;29;20056;-81
2023/12/03 01:55:18;;;;;;;15.63;7.38;;;-0.60;99.90;;;;;;4933373;29;22734;-81
2023/12/03 01:57:45;;;;;;;19.92;8.27;;;-0.60;99.90;;;;;;4933235;29;20036;-78
2023/12/03 02:00:12;;;;;;;18.15;8.32;;;-0.10;99.90;;;;;;4905428;29;20044;-78
2023/12/03 02:02:40;;;;;;;19.38;9.05;;;-0.60;99.90;;;;;;4913295;29;20135;-78
2023/12/03 02:05:07;;;;;;;20.52;9.10;;;-0.70;99.90;;;;;;4932780;29;20550;-78
2023/12/03 02:07:33;;;;;;;18.92;8.13;;;-0.70;99.90;;;;;;4933254;29;20092;-78
2023/12/03 02:10:00;;;;;;;20.95;8.40;;;-0.70;99.90;;;;;;4917414;29;20457;-78
2023/12/03 02:12:27;;;;;;;18.83;8.43;;;-0.80;99.90;;;;;;4917446;29;20485;-78
2023/12/03 02:14:54;;;;;;;15.85;7.95;;;-0.80;99.90;;;;;;4928882;29;20036;-78
2023/12/03 02:17:20;;;;;;;19.40;8.52;;;-0.80;99.90;;;;;;4917542;29;20047;-78
2023/12/03 02:19:47;;;;;;;18.70;8.02;;;-0.80;99.90;;;;;;4932561;29;20066;-78
2023/12/03 02:22:14;;;;;;;21.23;8.40;;;-0.80;99.90;;;;;;4920371;29;20100;-78
2023/12/03 02:24:40;;;;;;;16.80;7.88;;;-0.80;99.90;;;;;;4916822;29;20711;-78
2023/12/03 02:27:07;;;;;;;17.38;7.90;;;-0.80;99.90;;;;;;4932804;29;20052;-78
2023/12/03 02:29:33;;;;;;;19.35;8.27;;;-0.90;99.90;;;;;;4917126;29;20490;-78
2023/12/03 02:32:00;;;;;;;17.77;8.07;;;-0.90;99.90;;;;;;4932192;29;20048;-78
2023/12/03 02:34:27;;;;;;;18.30;7.45;;;-0.90;99.90;;;;;;4909958;29;20083;-78
2023/12/03 02:36:53;;;;;;;17.58;7.25;;;-0.90;99.90;;;;;;4916720;29;20036;-78
2023/12/03 02:39:20;;;;;;;18.65;7.60;;;-1.00;99.90;;;;;;4932644;29;20079;-78
2023/12/03 02:41:46;;;;;;;17.50;8.32;;;-1.00;99.90;;;;;;4901961;29;20490;-78
2023/12/03 02:44:13;;;;;;;18.25;7.78;;;-1.00;99.90;;;;;;4917109;29;20044;-78
2023/12/03 02:46:40;;;;;;;15.90;7.53;;;-1.00;99.90;;;;;;4916705;29;20104;-78
2023/12/03 02:49:06;;;;;;;14.52;7.22;;;-1.10;99.90;;;;;;4916615;29;20068;-78
2023/12/03 02:51:33;;;;;;;20.50;8.30;;;-1.10;99.90;;;;;;4932528;29;20048;-78
2023/12/03 02:53:59;;;;;;;17.00;7.75;;;-1.10;99.90;;;;;;4932459;29;20501;-78
2023/12/03 02:56:26;;;;;;;18.15;7.93;;;-1.10;99.90;;;;;;4916709;29;20045;-78
2023/12/03 02:58:53;;;;;;;16.75;7.35;;;-1.20;99.90;;;;;;4909405;29;20080;-78
2023/12/03 03:01:19;;;;;;;15.10;7.50;;;-1.10;99.90;;;;;;4929080;29;20053;-78
2023/12/03 03:03:46;;;;;;;16.15;7.65;;;-1.20;99.90;;;;;;4932153;29;20131;-78
2023/12/03 03:06:12;;;;;;;21.05;7.88;;;-1.20;99.90;;;;;;4916182;29;20522;-78
2023/12/03 03:08:39;;;;;;;13.57;6.88;;;-1.20;99.90;;;;;;4907178;29;20112;-78
2023/12/03 03:11:08;;;;;;;20.00;7.93;;;-1.20;99.90;;;;;;4930925;29;20044;-78
2023/12/03 03:13:34;;;;;;;15.48;7.78;;;-1.20;99.90;;;;;;4904776;29;20072;-78
2023/12/03 03:16:01;;;;;;;14.50;6.75;;;-1.20;99.90;;;;;;4925478;29;20064;-78
2023/12/03 03:18:28;;;;;;;23.30;8.40;;;-1.20;99.90;;;;;;4927374;29;20043;-78
2023/12/03 03:20:54;;;;;;;17.90;7.78;;;-1.20;99.90;;;;;;4916458;29;20048;-78
2023/12/03 03:23:21;;;;;;;15.93;7.22;;;-1.20;99.90;;;;;;4916084;29;20619;-78
2023/12/03 03:25:48;;;;;;;16.60;7.50;;;-1.30;99.90;;;;;;4905552;29;20044;-78
2023/12/03 03:28:14;;;;;;;13.30;7.53;;;-1.30;99.90;;;;;;4910346;29;20064;-78
2023/12/03 03:30:41;;;;;;;16.42;7.72;;;-1.30;99.90;;;;;;4911864;29;20047;-78
2023/12/03 03:33:07;;;;;;;16.73;7.78;;;-1.40;99.90;;;;;;4924133;29;20175;-78
2023/12/03 03:35:34;;;;;;;18.55;8.23;;;-1.40;99.90;;;;;;4915746;29;20060;-78
2023/12/03 03:38:01;;;;;;;17.40;7.95;;;-1.40;99.90;;;;;;4915728;29;20056;-78
2023/12/03 03:40:27;;;;;;;18.13;7.65;;;-1.40;99.90;;;;;;4931434;29;20048;-78
2023/12/03 03:42:54;;;;;;;15.80;7.32;;;-0.80;99.90;;;;;;4931676;29;20052;-78
2023/12/03 03:45:20;;;;;;;16.67;7.75;;;-1.40;99.90;;;;;;4915783;29;20500;-78
2023/12/03 03:47:47;;;;;;;17.52;8.15;;;-1.40;99.90;;;;;;4916068;29;20073;-78
2023/12/03 03:50:14;;;;;;;21.08;8.30;;;-0.80;99.90;;;;;;4931007;29;20136;-78
2023/12/03 03:52:40;;;;;;;16.92;7.95;;;-1.40;99.90;;;;;;4930940;29;20040;-77
2023/12/03 03:55:07;;;;;;;16.40;8.00;;;-1.30;99.90;;;;;;4930262;29;20052;-78
2023/12/03 03:57:34;;;;;;;20.30;8.65;;;-1.30;99.90;;;;;;4912906;29;20565;-78
2023/12/03 04:00:01;;;;;;;19.02;8.35;;;-0.80;99.90;;;;;;4906950;29;20037;-78
2023/12/03 04:02:27;;;;;;;18.17;7.70;;;-1.30;99.90;;;;;;4915343;29;20394;-78
2023/12/03 04:04:55;;;;;;;15.20;7.13;;;-1.30;99.90;;;;;;4930937;29;20052;-78
2023/12/03 04:07:21;;;;;;;17.92;7.80;;;-1.30;99.90;;;;;;4931088;29;20157;-78
2023/12/03 04:09:48;;;;;;;16.95;8.15;;;-1.20;99.90;;;;;;4915296;29;20143;-78
2023/12/03 04:12:15;;;;;;;17.40;8.23;;;-1.20;99.90;;;;;;4915458;29;20044;-78
2023/12/03 04:14:41;;;;;;;19.92;9.65;;;-1.10;99.90;;;;;;4915367;29;20467;-78
2023/12/03 04:17:08;;;;;;;26.38;8.77;;;-1.10;99.90;;;;;;4915492;29;20048;-78
2023/12/03 04:19:36;;;;;;;19.17;9.13;;;-1.00;99.90;;;;;;4927848;29;20041;-78
2023/12/03 04:22:03;;;;;;;51.88;10.43;;;-1.00;99.90;;;;;;4914841;29;20049;-78
2023/12/03 04:24:29;;;;;;;54.03;9.52;;;-0.90;99.90;;;;;;4915602;29;20040;-78
2023/12/03 04:26:56;;;;;;;59.42;10.60;;;-0.90;99.90;;;;;;4929791;29;20709;-78
2023/12/03 04:29:22;;;;;;;49.53;10.82;;;-0.80;99.90;;;;;;4921935;29;20044;-78
2023/12/03 04:31:50;;;;;;;59.55;14.60;;;0.10;99.90;;;;;;4915804;29;20132;-78
2023/12/03 04:34:16;;;;;;;111.15;15.15;;;-0.70;99.90;;;;;;4913205;29;20044;-78
2023/12/03 04:36:46;;;;;;;105.50;17.33;;;-0.70;99.90;;;;;;4912936;29;20044;-78
2023/12/03 04:39:12;;;;;;;74.18;16.77;;;-0.70;99.90;;;;;;4914938;29;20044;-78
2023/12/03 04:41:39;;;;;;;198.85;23.58;;;-0.60;99.90;;;;;;4915036;29;20074;-78
2023/12/03 04:44:06;;;;;;;150.65;21.50;;;-0.60;99.90;;;;;;4914871;29;20040;-80
2023/12/03 04:46:32;;;;;;;149.48;24.90;;;-0.50;99.90;;;;;;4946535;29;20041;-81
2023/12/03 04:48:59;;;;;;;161.25;27.55;;;-0.50;99.90;;;;;;4930524;29;20147;-81
2023/12/03 04:51:25;;;;;;;614.67;47.30;;;-0.50;99.90;;;;;;4930401;29;20068;-81
2023/12/03 04:53:52;;;;;;;334.23;37.08;;;-0.40;99.90;;;;;;4914596;29;20076;-81
2023/12/03 04:56:19;;;;;;;397.25;42.25;;;-0.40;99.90;;;;;;4915061;29;20079;-81
2023/12/03 04:58:45;;;;;;;359.60;39.42;;;-0.40;99.90;;;;;;4930370;29;20044;-81
2023/12/03 05:01:12;;;;;;;224.25;38.35;;;-0.30;99.90;;;;;;4911463;29;20052;-81
2023/12/03 05:03:39;;;;;;;290.55;41.75;;;-0.30;99.90;;;;;;4907593;29;20494;-81
2023/12/03 05:06:06;;;;;;;364.42;45.03;;;0.80;99.90;;;;;;4927727;29;20120;-81
2023/12/03 05:08:33;;;;;;;451.02;48.65;;;-0.30;99.90;;;;;;4914952;29;20045;-81
2023/12/03 05:11:06;;;;;;;318.33;42.60;;;-0.10;99.90;;;;;;4925993;29;20044;-81
2023/12/03 05:13:33;;;;;;;369.55;50.65;;;-0.20;99.90;;;;;;4915097;29;20041;-81
2023/12/03 05:16:07;;;;;;;471.63;53.70;;;-0.20;99.90;;;;;;4930254;29;20044;-81
2023/12/03 05:18:33;;;;;;;339.92;50.35;;;-0.20;99.90;;;;;;4914357;29;20557;-81
2023/12/03 05:21:01;;;;;;;324.10;48.28;;;-0.10;99.90;;;;;;4910774;29;20131;-80
2023/12/03 05:23:28;;;;;;;659.42;61.40;;;-0.10;99.90;;;;;;4930224;29;20410;-81
2023/12/03 05:25:56;;;;;;;465.85;52.90;;;-0.10;99.90;;;;;;4911695;29;20040;-81
2023/12/03 05:28:23;;;;;;;341.77;47.50;;;-0.10;99.90;;;;;;4914544;29;20040;-81
2023/12/03 05:30:50;;;;;;;467.60;51.50;;;0.00;99.90;;;;;;4902248;29;20067;-81
2023/12/03 05:33:17;;;;;;;460.33;47.88;;;0.10;99.90;;;;;;4930324;29;20494;-81
2023/12/03 05:35:43;;;;;;;280.38;39.53;;;0.00;99.90;;;;;;4914636;29;20041;-81
2023/12/03 05:38:10;;;;;;;374.20;41.20;;;0.00;99.90;;;;;;4931349;29;20420;-81
2023/12/03 05:40:36;;;;;;;279.33;35.15;;;0.10;99.90;;;;;;4918003;29;20036;-81
2023/12/03 05:43:03;;;;;;;338.13;37.17;;;0.10;99.90;;;;;;4925577;29;20037;-81
2023/12/03 05:45:30;;;;;;;208.57;33.72;;;0.10;99.90;;;;;;4928103;29;20064;-81
2023/12/03 05:47:56;;;;;;;225.45;32.67;;;0.10;99.90;;;;;;4930940;29;20100;-81
2023/12/03 05:50:24;;;;;;;256.05;29.40;;;0.10;99.90;;;;;;4913845;29;20041;-81
2023/12/03 05:52:51;;;;;;;255.07;27.92;;;0.10;99.90;;;;;;4917591;29;20051;-80
2023/12/03 05:55:17;;;;;;;148.60;21.75;;;0.10;99.90;;;;;;4916420;29;20498;-81
2023/12/03 05:57:45;;;;;;;72.35;17.70;;;0.10;99.90;;;;;;4899514;29;20053;-81
2023/12/03 06:00:12;;;;;;;98.18;16.45;;;0.10;99.90;;;;;;4932781;29;20040;-81
2023/12/03 06:02:39;;;;;;;103.15;14.65;;;0.10;99.90;;;;;;4920581;29;20045;-80
2023/12/03 06:05:05;;;;;;;95.20;15.40;;;0.10;99.90;;;;;;4913795;29;20064;-80
2023/12/03 06:07:32;;;;;;;80.78;13.90;;;0.20;99.90;;;;;;4917688;29;20045;-81
2023/12/03 06:09:59;;;;;;;83.60;13.10;;;0.20;99.90;;;;;;4917449;29;20044;-81
2023/12/03 06:12:25;;;;;;;68.65;13.32;;;0.20;99.90;;;;;;4917235;29;20029;-81
2023/12/03 06:14:52;;;;;;;132.25;14.80;;;0.20;99.90;;;;;;4917176;29;20130;-81
2023/12/03 06:17:19;;;;;;;124.47;15.43;;;0.20;99.90;;;;;;4909169;29;20047;-81
2023/12/03 06:19:45;;;;;;;44.33;12.55;;;0.20;99.90;;;;;;4929153;29;20673;-81
2023/12/03 06:22:12;;;;;;;76.00;13.13;;;0.20;99.90;;;;;;4917152;29;20125;-81
2023/12/03 06:24:39;;;;;;;45.33;13.25;;;0.20;99.90;;;;;;4927740;29;20041;-81
2023/12/03 06:27:06;;;;;;;69.97;12.23;;;0.30;99.90;;;;;;4911127;29;20040;-81
2023/12/03 06:29:32;;;;;;;61.88;12.45;;;0.20;99.90;;;;;;4928417;29;20075;-81
2023/12/03 06:31:59;;;;;;;78.53;12.98;;;0.30;99.90;;;;;;4917049;29;20047;-81
2023/12/03 06:34:25;;;;;;;54.67;12.23;;;0.30;99.90;;;;;;4932118;29;20703;-81
2023/12/03 06:36:53;;;;;;;62.65;12.77;;;0.30;99.90;;;;;;4932588;29;20129;-81
2023/12/03 06:39:19;;;;;;;113.22;14.93;;;0.30;99.90;;;;;;4917047;29;20037;-81
2023/12/03 06:41:46;;;;;;;110.50;14.63;;;0.30;99.90;;;;;;4912978;29;20513;-81
2023/12/03 06:44:13;;;;;;;64.38;13.38;;;0.30;99.90;;;;;;4932472;29;20120;-81
2023/12/03 06:46:40;;;;;;;41.97;11.65;;;0.30;99.90;;;;;;4921917;29;20068;-81
2023/12/03 06:49:07;;;;;;;56.53;13.05;;;0.30;99.90;;;;;;4931301;29;20045;-81
2023/12/03 06:51:34;;;;;;;101.05;14.23;;;1.30;99.90;;;;;;4920976;29;20482;-81
2023/12/03 06:54:02;;;;;;;120.25;15.18;;;0.40;99.90;;;;;;4932280;29;20493;-80
2023/12/03 06:56:28;;;;;;;65.80;13.57;;;0.40;99.90;;;;;;4913637;29;20052;-81
2023/12/03 06:58:55;;;;;;;49.22;12.93;;;0.40;99.90;;;;;;4920923;29;20426;-81
2023/12/03 07:01:22;;;;;;;84.50;13.40;;;0.40;99.90;;;;;;4929757;29;20049;-81
2023/12/03 07:03:49;;;;;;;68.25;13.95;;;0.40;99.90;;;;;;4901139;29;20044;-81
2023/12/03 07:06:15;;;;;;;80.65;14.23;;;0.40;99.90;;;;;;4916196;29;20061;-81
2023/12/03 07:08:44;;;;;;;65.57;12.85;;;0.40;99.90;;;;;;4931892;29;20041;-81
2023/12/03 07:11:13;;;;;;;71.63;13.90;;;0.50;99.90;;;;;;4916625;29;20115;-81
2023/12/03 07:13:40;;;;;;;54.20;14.15;;;1.60;99.90;;;;;;4926078;29;20447;-81
2023/12/03 07:16:09;;;;;;;71.80;16.05;;;0.50;99.90;;;;;;4911531;29;20054;-80
2023/12/03 07:18:36;;;;;;;48.25;14.48;;;0.50;99.90;;;;;;4916601;29;20044;-81
2023/12/03 07:21:02;;;;;;;89.60;15.98;;;0.50;99.90;;;;;;4916427;29;20055;-81
2023/12/03 07:23:29;;;;;;;60.42;14.60;;;0.50;99.90;;;;;;4919999;29;20066;-81
2023/12/03 07:25:56;;;;;;;53.00;13.52;;;0.50;99.90;;;;;;4940661;29;20505;-81
2023/12/03 07:28:22;;;;;;;99.35;14.95;;;0.50;99.90;;;;;;4915327;29;20413;-81
2023/12/03 07:30:49;;;;;;;54.97;14.20;;;0.50;99.90;;;;;;4914307;29;20127;-81
2023/12/03 07:33:16;;;;;;;97.32;15.82;;;1.50;99.90;;;;;;4911314;29;20047;-81
2023/12/03 07:35:42;;;;;;;77.78;15.52;;;0.50;99.90;;;;;;4912827;29;20513;-81
2023/12/03 07:38:09;;;;;;;76.72;17.10;;;1.70;99.90;;;;;;4914615;29;20391;-79
2023/12/03 07:40:35;;;;;;;61.63;15.07;;;0.50;99.90;;;;;;4930653;29;20123;-79
2023/12/03 07:43:02;;;;;;;59.67;15.48;;;0.60;99.90;;;;;;4903686;29;20072;-79
2023/12/03 07:45:29;;;;;;;45.10;13.75;;;0.50;99.90;;;;;;4905977;29;20036;-78
2023/12/03 07:47:55;;;;;;;55.47;13.77;;;0.50;99.90;;;;;;4912215;29;20065;-80
2023/12/03 07:50:22;;;;;;;53.97;13.57;;;1.00;99.90;;;;;;4915374;29;20041;-80
2023/12/03 07:52:48;;;;;;;52.40;14.23;;;0.50;99.90;;;;;;4920162;29;20041;-80
2023/12/03 07:55:15;;;;;;;49.08;13.75;;;0.60;99.90;;;;;;4910877;29;20037;-80
2023/12/03 07:57:42;;;;;;;52.45;12.73;;;0.60;99.90;;;;;;4932973;29;20044;-80
2023/12/03 08:00:09;;;;;;;61.85;13.30;;;0.60;99.90;;;;;;4929793;29;20040;-80
2023/12/03 08:02:36;;;;;;;65.13;12.82;;;0.60;99.90;;;;;;4910178;29;20406;-80
2023/12/03 08:05:04;;;;;;;70.55;13.32;;;0.60;99.90;;;;;;4915222;29;20056;-80
2023/12/03 08:07:30;;;;;;;62.97;14.82;;;0.60;99.90;;;;;;4938342;29;20064;-80
2023/12/03 08:09:57;;;;;;;54.47;12.88;;;0.60;99.90;;;;;;4914044;29;20041;-80
2023/12/03 08:12:24;;;;;;;62.03;13.40;;;0.70;99.90;;;;;;4932858;29;20073;-80
2023/12/03 08:14:50;;;;;;;92.32;15.60;;;0.60;99.90;;;;;;4928152;29;20079;-80
2023/12/03 08:17:17;;;;;;;108.15;16.70;;;0.70;99.90;;;;;;4921280;29;20075;-80
2023/12/03 08:19:43;;;;;;;70.40;17.17;;;0.70;99.90;;;;;;4912876;29;20565;-80
2023/12/03 08:22:10;;;;;;;118.28;16.90;;;0.70;99.90;;;;;;4927121;29;20092;-80
2023/12/03 08:24:37;;;;;;;93.45;16.63;;;0.80;99.90;;;;;;4926517;29;20056;-80
2023/12/03 08:27:04;;;;;;;77.45;14.70;;;0.80;99.90;;;;;;4924985;29;20501;-80
2023/12/03 08:29:31;;;;;;;120.82;17.17;;;0.80;99.90;;;;;;4914802;29;20040;-80
2023/12/03 08:31:57;;;;;;;84.30;14.38;;;0.70;99.90;;;;;;4928679;29;20096;-80
2023/12/03 08:34:25;;;;;;;78.80;15.10;;;0.80;99.90;;;;;;4909895;29;20814;-80
2023/12/03 08:36:51;;;;;;;85.50;15.52;;;0.80;99.90;;;;;;4935655;29;20032;-80
2023/12/03 08:39:18;;;;;;;75.78;14.60;;;0.80;99.90;;;;;;4924814;29;20118;-80
2023/12/03 08:41:45;;;;;;;80.30;17.35;;;0.90;99.90;;;;;;4923015;29;20116;-80
2023/12/03 08:44:11;;;;;;;95.75;17.27;;;0.90;99.90;;;;;;4907839;29;20131;-80
2023/12/03 08:46:38;;;;;;;78.10;15.55;;;0.90;99.90;;;;;;4914028;29;20048;-80
2023/12/03 08:49:05;;;;;;;67.28;14.43;;;1.20;99.90;;;;;;4913739;29;20470;-80
2023/12/03 08:51:32;;;;;;;68.15;15.25;;;0.70;99.90;;;;;;4932879;29;20075;-80
2023/12/03 08:53:58;;;;;;;117.72;19.85;;;1.80;99.90;;;;;;4929955;29;20041;-80
2023/12/03 08:56:25;;;;;;;84.97;15.77;;;1.00;99.90;;;;;;4945021;29;20040;-80
2023/12/03 08:58:51;;;;;;;81.88;15.75;;;1.00;99.90;;;;;;4909935;29;20033;-81
2023/12/03 09:01:20;;;;;;;60.97;15.10;;;1.90;99.90;;;;;;4913856;29;20509;-80
2023/12/03 09:03:47;;;;;;;75.45;15.65;;;1.00;99.90;;;;;;4911108;29;20052;-80
2023/12/03 09:06:13;;;;;;;58.30;14.55;;;1.40;99.90;;;;;;4929459;29;20056;-81
2023/12/03 09:08:40;;;;;;;56.45;13.82;;;1.90;99.90;;;;;;4927071;29;20128;-80
2023/12/03 09:11:07;;;;;;;60.65;13.90;;;1.10;99.90;;;;;;4933671;29;20033;-80
2023/12/03 09:13:33;;;;;;;53.55;14.50;;;1.10;99.90;;;;;;4911281;29;20045;-80
2023/12/03 09:16:00;;;;;;;49.53;14.60;;;1.10;99.90;;;;;;4933575;29;20044;-80
2023/12/03 09:18:27;;;;;;;59.28;14.50;;;1.10;99.90;;;;;;4909764;29;20085;-80
2023/12/03 09:20:53;;;;;;;55.88;13.40;;;1.10;99.90;;;;;;4912467;29;20041;-80
2023/12/03 09:23:20;;;;;;;47.70;11.85;;;1.10;99.90;;;;;;4917881;29;20044;-81
2023/12/03 09:25:47;;;;;;;49.60;12.68;;;1.10;99.90;;;;;;4917376;29;20531;-81
2023/12/03 09:28:13;;;;;;;44.88;11.82;;;1.10;99.90;;;;;;4936358;29;20094;-81
2023/12/03 09:30:40;;;;;;;47.22;11.77;;;1.20;99.90;;;;;;4936821;29;20588;-80
2023/12/03 09:33:07;;;;;;;46.38;11.65;;;1.20;99.90;;;;;;4910461;29;20115;-80
2023/12/03 09:35:33;;;;;;;38.75;11.45;;;1.20;99.90;;;;;;4931108;29;20044;-80
2023/12/03 09:38:00;;;;;;;46.47;11.13;;;1.20;99.90;;;;;;4917456;29;20049;-80
2023/12/03 09:40:27;;;;;;;33.90;10.50;;;1.20;99.90;;;;;;4931268;29;20095;-79
2023/12/03 09:42:56;;;;;;;43.55;12.13;;;1.20;99.90;;;;;;4931262;29;20405;-80
2023/12/03 09:45:26;;;;;;;34.22;10.35;;;1.30;99.90;;;;;;4923023;29;20096;-79
2023/12/03 09:47:59;;;;;;;42.83;13.30;;;1.20;99.90;;;;;;4911368;29;20036;-80
2023/12/03 09:50:27;;;;;;;36.35;12.48;;;1.20;99.90;;;;;;4932323;29;20081;-80
2023/12/03 09:52:56;;;;;;;38.90;10.88;;;1.30;99.90;;;;;;4916531;29;20044;-80
2023/12/03 09:55:27;;;;;;;42.38;12.73;;;1.30;99.90;;;;;;4926056;29;20114;-80
2023/12/03 09:57:55;;;;;;;36.95;11.77;;;1.30;99.90;;;;;;4910968;29;20112;-80
2023/12/03 10:00:23;;;;;;;36.63;11.18;;;1.30;99.90;;;;;;4931395;29;20091;-80
2023/12/03 10:02:52;;;;;;;45.38;12.02;;;2.10;99.90;;;;;;4917921;29;20051;-79
2023/12/03 10:05:19;;;;;;;42.65;11.85;;;1.30;99.90;;;;;;4917447;29;20664;-80
2023/12/03 10:07:47;;;;;;;49.78;11.35;;;1.40;99.90;;;;;;4932125;29;20108;-80
2023/12/03 10:10:17;;;;;;;42.33;12.35;;;1.40;99.90;;;;;;4917005;29;20144;-80
2023/12/03 10:12:45;;;;;;;43.10;12.90;;;1.40;99.90;;;;;;4906039;29;20037;-80
2023/12/03 10:15:13;;;;;;;49.92;12.27;;;1.40;99.90;;;;;;4910934;29;20037;-80
2023/12/03 10:17:39;;;;;;;48.70;13.23;;;2.00;99.90;;;;;;4911461;29;20049;-80
2023/12/03 10:20:21;;;;;;;48.85;13.07;;;1.40;99.90;;;;;;4914900;29;20045;-80
2023/12/03 10:22:51;;;;;;;39.88;12.32;;;1.50;99.90;;;;;;4926478;29;20049;-80
2023/12/03 10:25:29;;;;;;;40.88;12.23;;;1.80;99.90;;;;;;4908463;29;20056;-80
2023/12/03 10:27:56;;;;;;;46.13;13.23;;;1.50;99.90;;;;;;4910376;29;20707;-79
2023/12/03 10:30:23;;;;;;;42.20;11.77;;;1.60;99.90;;;;;;4912827;29;20047;-79
2023/12/03 10:32:50;;;;;;;43.30;12.88;;;1.50;99.90;;;;;;4916035;29;20041;-80
2023/12/03 10:35:24;;;;;;;47.38;13.63;;;1.60;99.90;;;;;;4921731;29;20047;-80
2023/12/03 10:37:51;;;;;;;50.00;14.25;;;1.60;99.90;;;;;;4920822;29;20124;-79
2023/12/03 10:40:18;;;;;;;44.92;13.05;;;2.10;99.90;;;;;;4909338;29;20124;-80
2023/12/03 10:42:46;;;;;;;49.65;15.00;;;2.40;99.90;;;;;;4913168;29;20048;-79
2023/12/03 10:45:14;;;;;;;47.88;14.13;;;1.70;99.90;;;;;;4931798;29;20068;-80
2023/12/03 10:47:42;;;;;;;41.13;12.70;;;1.70;99.90;;;;;;4914752;29;20055;-79
2023/12/03 10:50:11;;;;;;;38.30;13.95;;;1.70;99.90;;;;;;4919491;29;20120;-80
2023/12/03 10:52:40;;;;;;;51.00;14.20;;;2.40;99.90;;;;;;4930512;29;20044;-80
2023/12/03 10:55:08;;;;;;;47.97;15.40;;;2.50;99.90;;;;;;4916118;29;20045;-80
2023/12/03 10:57:43;;;;;;;51.63;15.25;;;1.90;99.90;;;;;;4930142;29;20045;-80
2023/12/03 11:00:12;;;;;;;49.25;15.23;;;1.90;99.90;;;;;;4936106;29;20055;-79
2023/12/03 11:02:45;;;;;;;44.65;14.80;;;1.90;99.90;;;;;;4912058;29;20426;-80
2023/12/03 11:05:51;;;;;;;41.72;13.70;;;2.10;99.90;;;;;;4915510;29;20069;-80
2023/12/03 11:08:20;;;;;;;38.88;14.40;;;2.00;99.90;;;;;;4901863;29;20060;-80
2023/12/03 11:10:50;;;;;;;47.17;14.70;;;2.00;99.90;;;;;;4932074;29;20092;-80
2023/12/03 11:13:18;;;;;;;46.00;15.50;;;2.00;99.90;;;;;;4931009;29;20600;-80
2023/12/03 11:15:46;;;;;;;42.10;15.30;;;2.00;99.90;;;;;;4931643;29;20052;-80
2023/12/03 11:18:16;;;;;;;47.80;15.57;;;2.40;99.90;;;;;;4912063;29;20157;-79
2023/12/03 11:20:46;;;;;;;43.22;15.30;;;2.10;99.90;;;;;;4909089;29;20040;-80
2023/12/03 11:23:43;;;;;;;44.55;15.48;;;2.20;99.90;;;;;;4927607;29;20512;-81
2023/12/03 11:26:15;;;;;;;48.03;16.23;;;2.20;99.90;;;;;;4928803;29;20066;-81
2023/12/03 11:28:57;;;;;;;41.97;15.85;;;2.20;99.90;;;;;;4900875;29;20084;-80
2023/12/03 11:31:25;;;;;;;41.95;15.80;;;2.20;99.90;;;;;;4929486;29;20044;-80
2023/12/03 11:33:58;;;;;;;45.90;16.13;;;2.20;99.90;;;;;;4923614;29;20417;-80
2023/12/03 11:36:47;;;;;;;39.90;15.48;;;2.20;99.90;;;;;;4930314;29;20085;-80
2023/12/03 11:39:15;;;;;;;44.08;17.70;;;2.20;99.90;;;;;;4927953;29;20047;-80
2023/12/03 11:41:42;;;;;;;42.28;16.42;;;2.20;99.90;;;;;;4921250;29;20383;-80
2023/12/03 11:44:22;;;;;;;47.22;16.95;;;2.20;99.90;;;;;;4913063;29;20075;-81
2023/12/03 11:46:50;;;;;;;38.22;16.08;;;2.20;99.90;;;;;;4915266;29;20083;-80
2023/12/03 11:49:17;;;;;;;46.63;17.50;;;2.20;99.90;;;;;;4915200;29;20048;-81
2023/12/03 11:51:46;;;;;;;41.60;17.38;;;2.50;99.90;;;;;;4922103;29;20041;-81
2023/12/03 11:54:21;;;;;;;37.40;16.33;;;2.20;99.90;;;;;;4918661;29;20061;-81
2023/12/03 11:56:48;;;;;;;40.83;17.60;;;2.20;99.90;;;;;;4926358;29;20040;-81
2023/12/03 11:59:15;;;;;;;44.10;18.30;;;2.20;99.90;;;;;;4912448;29;20293;-81
2023/12/03 12:01:41;;;;;;;45.28;18.20;;;2.20;99.90;;;;;;4913635;29;20047;-81
2023/12/03 12:04:08;;;;;;;46.40;18.70;;;2.30;99.90;;;;;;4946134;29;20044;-81
2023/12/03 12:06:36;;;;;;;43.25;18.92;;;2.40;99.90;;;;;;4911000;29;20518;-80
2023/12/03 12:09:11;;;;;;;45.05;19.60;;;2.30;99.90;;;;;;4906920;29;20049;-80
2023/12/03 12:11:38;;;;;;;43.08;18.50;;;2.30;99.90;;;;;;4913649;29;20486;-80
2023/12/03 12:14:05;;;;;;;48.15;20.48;;;3.20;99.90;;;;;;4927101;29;20044;-80
2023/12/03 12:16:35;;;;;;;42.90;18.88;;;2.30;99.90;;;;;;4935331;29;20092;-81
2023/12/03 12:19:04;;;;;;;40.75;18.35;;;2.30;99.90;;;;;;4921931;29;20054;-81
2023/12/03 12:21:30;;;;;;;40.70;18.85;;;2.30;99.90;;;;;;4928293;29;20080;-80
2023/12/03 12:23:57;;;;;;;37.45;18.23;;;2.30;99.90;;;;;;4907340;29;20085;-78
2023/12/03 12:26:24;;;;;;;40.50;19.00;;;2.30;99.90;;;;;;4913556;29;20037;-78
2023/12/03 12:28:51;;;;;;;38.70;18.23;;;2.30;99.90;;;;;;4908158;29;20083;-78
2023/12/03 12:31:19;;;;;;;39.40;17.48;;;2.30;99.90;;;;;;4917547;29;20520;-78
2023/12/03 12:33:46;;;;;;;37.20;18.02;;;2.30;99.90;;;;;;4928488;29;20041;-78
2023/12/03 12:36:15;;;;;;;38.30;16.95;;;2.30;99.90;;;;;;4911000;29;20045;-77